Science Garden, Philippines

2:20 AM PHT on December 08, 2016 (GMT +0800)
Manila City | | Change Station

Elev 0 ft 14.60 °N, 120.97 °E | Updated 7 minutes ago

Light Rain
Light Rain
81.1 °F
Feels Like 88 °F
N
1.2
Wind Variable Wind from West
Gusts 3.1 mph

Today
High -- | Low -- °F
--% Chance of Precip.
Yesterday
High -- | Low -- °F
Precip. -- in
Pressure 29.77 in
Visibility 5.0 miles
Clouds Scattered Clouds 2200 ft
Overcast 9000 ft
Heat Index 88 °F
Dew Point 77 °F
Humidity 86%
Rainfall Not available.
Snow Depth Not available.
6:09 AM 5:26 PM
First Quarter, 54% visible
METAR RPLL 071800Z 01005KT 8000 -RA SCT022 OVC090 25/25 Q1008 NOSIG RMK A2977
Pressure 29.77 in
Visibility 5.0 miles
Clouds Scattered Clouds 2200 ft
Overcast 9000 ft
Heat Index 88 °F
Dew Point 77 °F
Humidity 86%
Rainfall Not available.
Snow Depth Not available.
6:09 AM 5:26 PM
First Quarter, 54% visible
METAR RPLL 071800Z 01005KT 8000 -RA SCT022 OVC090 25/25 Q1008 NOSIG RMK A2977

10-Day Weather Forecast

No radar image for this location.
×

Almanac

Astronomy

Dec. 08, 2016 Rise Set
Actual Time
Civil Twilight
Nautical Twilight
Astronomical Twilight
Moon
Length of Visible Light
Length of Day
Tomorrow will be .
, % of the Moon is Illuminated

Today's Extremes

Country Highs Country Lows

Community

WunderPhotos

Upload Photos

1,956,157 photos uploaded!

WunderBlog® & News

Nearby

Air Quality

  Air Quality AQ Index Pollutant
Not available.

Snow Depth

Station Depth Elevation

Earthquake Activity

City Distance Mag. Time & Date
Minimum magnitude displayed is 2.5.

Coastal Water Temperatures

Place Temperature

Stations

Nearby Weather Stations

Station Location Temp. Windchill Dew Point Humidity Wind Precip. Elev Updated Type